Exy Johnson — WDB3395 — position and weather

sailwx.info

Track history (hours):
 
Tides and Currents Weather Stations Pressure Air Temp Water Temp Dewpoint Dewpoint Depression Visibility Wind Speed Wind Dir Waves Ship Positions

Exy Johnson (United States)

Ship's website: http://www.lamitopsail.org/index.asp

Owner: Los Angeles Maritime Institute, San Pedro, CA. More information available from US FCC via Universal Licensing System and Coast Guard Vessel Documentation Center.

Last reported at 2017-Aug-13 01:36 UTC. Time now 2017-Aug-17 01:35 UTC.
Position N 33°44' W 118°17'.

Length 34 m; draft 3.7 m.

Type: Sailing vessel. MMSI: 366883970.

Date/timePositionNaut miles runAvg speedWind from/ knotsBaromVisibWave heightAir tempDewpointWater temp
2017-Aug-13 01:36N 33°44' W 118°17'0 0.0
2017-Aug-13 01:25N 33°44' W 118°17'0 0.0
2017-Aug-13 00:53N 33°44' W 118°17'0 0.0
2017-Aug-13 00:29N 33°44' W 118°17'0 0.0
2017-Aug-12 23:57N 33°44' W 118°17'0 0.0
2017-Aug-12 23:31N 33°44' W 118°17'0 0.5
2017-Aug-12 23:00N 33°44' W 118°16'2 3.8
2017-Aug-12 22:30N 33°43' W 118°14'1 1.6
2017-Aug-12 22:00N 33°43' W 118°14'1 2.0
2017-Aug-12 21:30N 33°44' W 118°12'1 2.5
2017-Aug-12 21:00N 33°43' W 118°14'1 2.2
2017-Aug-12 20:30N 33°43' W 118°15'1 1.6
2017-Aug-12 20:00N 33°43' W 118°16'1 1.4
2017-Aug-12 19:24N 33°44' W 118°16'0 0.6
2017-Aug-12 18:57N 33°44' W 118°17'0 0.0
2017-Aug-12 18:25N 33°44' W 118°17'0 0.0
2017-Aug-11 19:49N 33°44' W 118°17'0 0.2
2017-Aug-11 19:30N 33°44' W 118°17'0 0.1
2017-Aug-11 19:00N 33°44' W 118°17'0 0.0
2017-Aug-11 18:30N 33°44' W 118°17'0 0.0
2017-Aug-11 18:00N 33°44' W 118°17'0 0.0
2017-Aug-11 17:30N 33°44' W 118°17'2 3.6
2017-Aug-11 17:00N 33°43' W 118°15'4 7.0
2017-Aug-11 16:23N 33°40' W 118°20'3 7.8
2017-Aug-11 15:56N 33°38' W 118°23'2 5.5
2017-Aug-11 15:30N 33°37' W 118°25'3 5.4
2017-Aug-11 15:00N 33°35' W 118°27'7 7.0
2017-Aug-11 14:00N 33°28' W 118°29'1 0.1
2017-Aug-10 21:57N 33°27' W 118°30'0 0.0
2017-Aug-10 00:31N 33°27' W 118°30'0 5.6
2017-Aug-10 00:28N 33°27' W 118°30'1 0.9
2017-Aug-09 22:56N 33°28' W 118°31'0 0.1
2017-Aug-09 17:47N 33°28' W 118°31'2 6.7
2017-Aug-09 17:30N 33°27' W 118°29'3 6.2
2017-Aug-09 16:58N 33°26' W 118°25'3 6.0
2017-Aug-09 16:28N 33°25' W 118°22'1 1.6
2017-Aug-09 15:46N 33°24' W 118°22'0 0.0
2017-Aug-09 14:43N 33°24' W 118°22'0 0.0
2017-Aug-09 14:28N 33°24' W 118°22'0 0.0
2017-Aug-09 13:58N 33°24' W 118°22'0 0.0
2017-Aug-09 13:09N 33°24' W 118°22'0 0.0
2017-Aug-09 12:30N 33°24' W 118°22'0 0.0
2017-Aug-09 11:55N 33°24' W 118°22'0 0.0
2017-Aug-09 10:47N 33°24' W 118°22'0 0.0
2017-Aug-09 10:27N 33°24' W 118°22'0 0.1
2017-Aug-09 09:40N 33°24' W 118°22'0 0.0
2017-Aug-09 09:26N 33°24' W 118°22'0 0.0
2017-Aug-09 08:48N 33°24' W 118°22'0 0.2
2017-Aug-09 08:30N 33°24' W 118°22'0 0.0
2017-Aug-09 08:00N 33°24' W 118°22'0 0.0
2017-Aug-09 07:29N 33°24' W 118°22'0 0.0
2017-Aug-09 06:58N 33°24' W 118°22'0 0.1
2017-Aug-09 06:29N 33°24' W 118°22'0 0.0
2017-Aug-09 06:00N 33°24' W 118°22'0 0.1
2017-Aug-09 05:25N 33°24' W 118°22'0 0.0
2017-Aug-09 04:57N 33°24' W 118°22'0 0.0
2017-Aug-09 04:30N 33°24' W 118°22'0 0.0
2017-Aug-09 03:57N 33°24' W 118°22'0 0.0
2017-Aug-09 03:30N 33°24' W 118°22'0 0.0
2017-Aug-09 03:00N 33°24' W 118°22'0 0.0
2017-Aug-09 02:28N 33°24' W 118°22'0 0.0
2017-Aug-09 01:57N 33°24' W 118°22'0 0.0
2017-Aug-09 01:29N 33°24' W 118°22'0 0.0
2017-Aug-09 01:00N 33°24' W 118°22'0 0.0
2017-Aug-09 00:30N 33°24' W 118°22'0 0.1
2017-Aug-09 00:00N 33°24' W 118°22'1 1.8
2017-Aug-08 23:30N 33°25' W 118°22'2 3.3
2017-Aug-08 23:00N 33°26' W 118°23'3 6.0
2017-Aug-08 22:30N 33°29' W 118°23'3 6.8
2017-Aug-08 22:00N 33°32' W 118°22'3 6.1
2017-Aug-08 21:30N 33°35' W 118°23'2 4.6
2017-Aug-08 21:00N 33°38' W 118°23'1 2.5
2017-Aug-08 20:30N 33°39' W 118°23'1 1.8
2017-Aug-08 19:59N 33°40' W 118°24'2 3.1
2017-Aug-08 19:30N 33°41' W 118°23'2 3.2
2017-Aug-08 19:00N 33°43' W 118°23'1 1.2
2017-Aug-08 18:30N 33°43' W 118°22'2 4.1
2017-Aug-08 17:59N 33°42' W 118°19'2 4.3
2017-Aug-08 17:30N 33°41' W 118°17'3 5.9
2017-Aug-08 16:59N 33°43' W 118°14'3 5.7
2017-Aug-08 16:30N 33°44' W 118°11'1 2.3
2017-Aug-08 15:59N 33°45' W 118°10'1 1.2
2017-Aug-08 15:26N 33°45' W 118°10'0 0.0
2017-Aug-08 14:50N 33°45' W 118°10'0 0.0
2017-Aug-08 14:28N 33°45' W 118°10'0 0.1
2017-Aug-08 13:56N 33°45' W 118°10'0 0.0
2017-Aug-08 13:18N 33°45' W 118°10'0 0.0
2017-Aug-08 12:55N 33°45' W 118°10'0 0.0
2017-Aug-08 12:19N 33°45' W 118°10'0 0.0
2017-Aug-08 11:56N 33°45' W 118°10'0 0.0
2017-Aug-08 11:26N 33°45' W 118°10'0 0.0
2017-Aug-08 06:06N 33°45' W 118°10'0 0.0
2017-Aug-08 05:02N 33°45' W 118°10'0 0.0
2017-Aug-08 04:47N 33°45' W 118°10'0 0.0
2017-Aug-08 02:38N 33°45' W 118°10'0 0.0
2017-Aug-08 02:30N 33°45' W 118°10'0 0.0
2017-Aug-08 02:00N 33°45' W 118°10'1 2.8
2017-Aug-08 01:30N 33°45' W 118°11'1 1.9
2017-Aug-08 01:00N 33°45' W 118°11'2 4.7
2017-Aug-08 00:30N 33°42' W 118°11'3 5.3
2017-Aug-08 00:00N 33°40' W 118°12'3 5.2
2017-Aug-07 23:30N 33°38' W 118°14'1 1.7
2017-Aug-07 22:58N 33°37' W 118°15'3 5.6
2017-Aug-07 22:30N 33°40' W 118°15'3 5.1
2017-Aug-07 22:00N 33°43' W 118°15'1 1.9
2017-Aug-07 21:30N 33°43' W 118°16'1 1.5
2017-Aug-07 20:51N 33°44' W 118°17'0 0.0
2017-Aug-07 20:22N 33°44' W 118°17'0 0.0
2017-Aug-07 19:56N 33°44' W 118°17'0 0.0
2017-Aug-07 19:29N 33°44' W 118°17'0 0.0
2017-Aug-07 19:00N 33°44' W 118°17'0 0.0
2017-Aug-07 18:29N 33°44' W 118°17'0 0.0
2017-Aug-07 17:49N 33°44' W 118°17'0 0.0
2017-Aug-07 17:28N 33°44' W 118°17'0 0.0
2017-Aug-07 16:59N 33°44' W 118°17'0 0.0
2017-Aug-07 16:19N 33°44' W 118°17'0 0.0
2017-Aug-07 15:53N 33°44' W 118°17'0 0.0
2017-Aug-07 15:28N 33°44' W 118°17'0 0.0
2017-Aug-07 14:56N 33°44' W 118°17'0 0.0
2017-Aug-07 12:59N 33°44' W 118°17'0 0.0
2017-Aug-07 12:28N 33°44' W 118°17'0 0.0
2017-Aug-07 10:25N 33°44' W 118°17'0 0.0
2017-Aug-07 09:46N 33°44' W 118°17'0 0.0
2017-Aug-07 09:27N 33°44' W 118°17'0 0.0
2017-Aug-07 09:00N 33°44' W 118°17'0 0.0
2017-Aug-07 08:29N 33°44' W 118°17'0 0.0
2017-Aug-07 07:43N 33°44' W 118°17'0 0.0
2017-Aug-07 07:11N 33°44' W 118°17'0 0.0
2017-Aug-07 06:43N 33°44' W 118°17'0 0.0
2017-Aug-07 06:29N 33°44' W 118°17'0 0.0
2017-Aug-07 04:47N 33°44' W 118°17'0 0.0
2017-Aug-07 04:27N 33°44' W 118°17'0 0.0
2017-Aug-07 03:55N 33°44' W 118°17'0 0.0
2017-Aug-07 03:29N 33°44' W 118°17'0 0.0
2017-Aug-07 03:00N 33°44' W 118°17'0 0.0
2017-Aug-07 02:30N 33°44' W 118°17'0 0.0
2017-Aug-07 01:58N 33°44' W 118°17'0 0.0
2017-Aug-07 01:27N 33°44' W 118°17'0 0.0
2017-Aug-07 01:00N 33°44' W 118°17'0 0.0
2017-Aug-07 00:29N 33°44' W 118°17'0 0.0
2017-Aug-06 23:56N 33°44' W 118°17'0 0.0
2017-Aug-06 23:19N 33°44' W 118°17'0 0.0
2017-Aug-06 22:50N 33°44' W 118°17'0 0.0
2017-Aug-06 22:28N 33°44' W 118°17'0 0.0
2017-Aug-06 21:59N 33°44' W 118°17'0 0.0
2017-Aug-06 21:29N 33°44' W 118°17'0 0.0
2017-Aug-06 21:00N 33°44' W 118°17'0 0.0
2017-Aug-06 20:29N 33°44' W 118°17'0 0.0
2017-Aug-06 19:58N 33°44' W 118°17'0 0.0
2017-Aug-06 19:25N 33°44' W 118°17'0 0.0
2017-Aug-06 18:56N 33°44' W 118°17'0 0.0
2017-Aug-06 18:27N 33°44' W 118°17'0 0.0
2017-Aug-06 17:53N 33°44' W 118°17'0 0.0
2017-Aug-06 17:26N 33°44' W 118°17'0 0.0
2017-Aug-06 17:00N 33°44' W 118°17'0 0.0
2017-Aug-06 16:30N 33°44' W 118°17'0 0.0
2017-Aug-06 15:56N 33°44' W 118°17'0 0.0
2017-Aug-06 15:25N 33°44' W 118°17'0 0.0
2017-Aug-06 14:59N 33°44' W 118°17'0 0.0
2017-Aug-06 14:29N 33°44' W 118°17'0 0.0
2017-Aug-06 13:26N 33°44' W 118°17'0 0.0
2017-Aug-06 12:59N 33°44' W 118°17'0 0.0
2017-Aug-06 12:22N 33°44' W 118°17'0 0.0
2017-Aug-06 11:57N 33°44' W 118°17'0 0.0
2017-Aug-06 11:28N 33°44' W 118°17'0 0.0
2017-Aug-06 10:58N 33°44' W 118°17'0 0.0
2017-Aug-06 10:25N 33°44' W 118°17'0 0.0
2017-Aug-06 09:58N 33°44' W 118°17'0 0.0
2017-Aug-06 09:30N 33°44' W 118°17'0 0.0
2017-Aug-06 08:58N 33°44' W 118°17'0 0.0
2017-Aug-06 08:27N 33°44' W 118°17'0 0.0
2017-Aug-06 07:54N 33°44' W 118°17'0 0.0
2017-Aug-06 07:29N 33°44' W 118°17'0 0.0
2017-Aug-06 06:57N 33°44' W 118°17'0 0.0
2017-Aug-06 06:27N 33°44' W 118°17'0 0.0
2017-Aug-06 05:58N 33°44' W 118°17'0 0.0
2017-Aug-06 05:27N 33°44' W 118°17'0 0.0
2017-Aug-06 04:59N 33°44' W 118°17'0 0.0
2017-Aug-06 04:22N 33°44' W 118°17'0 0.0
2017-Aug-06 03:57N 33°44' W 118°17'0 0.0
2017-Aug-06 03:29N 33°44' W 118°17'0 0.0
2017-Aug-06 02:57N 33°44' W 118°17'0 0.0
2017-Aug-06 02:26N 33°44' W 118°17'0 0.0
2017-Aug-06 01:59N 33°44' W 118°17'0 0.0
2017-Aug-06 01:28N 33°44' W 118°17'0 0.0
2017-Aug-06 00:58N 33°44' W 118°17'0 0.0
2017-Aug-06 00:25N 33°44' W 118°17'0 0.0
2017-Aug-05 23:59N 33°44' W 118°17'0 0.0
2017-Aug-05 23:30N 33°44' W 118°17'0 0.0
2017-Aug-05 23:00N 33°44' W 118°17'0 0.0
2017-Aug-05 22:30N 33°44' W 118°17'0 0.0
2017-Aug-05 22:00N 33°44' W 118°17'0 0.9
2017-Aug-05 21:30N 33°44' W 118°17'1 2.5
2017-Aug-05 20:59N 33°43' W 118°16'1 2.6
2017-Aug-05 20:29N 33°42' W 118°15'1 3.0
2017-Aug-05 20:00N 33°41' W 118°15'1 1.5
2017-Aug-05 19:30N 33°41' W 118°15'1 2.8
2017-Aug-05 18:59N 33°43' W 118°15'1 2.8
2017-Aug-05 18:30N 33°44' W 118°16'0 0.5
2017-Aug-05 17:56N 33°44' W 118°17'0 0.0
2017-Aug-05 16:29N 33°44' W 118°17'0 0.0
2017-Aug-05 12:43N 33°44' W 118°17'0 0.0
2017-Aug-05 12:30N 33°44' W 118°17'0 0.0
2017-Aug-05 11:55N 33°44' W 118°17'0 0.0
2017-Aug-05 11:23N 33°44' W 118°17'0 0.0
2017-Aug-05 10:58N 33°44' W 118°17'0 0.0
2017-Aug-05 10:30N 33°44' W 118°17'0 0.0
2017-Aug-05 09:53N 33°44' W 118°17'0 0.0
2017-Aug-05 09:28N 33°44' W 118°17'0 0.0
2017-Aug-05 08:59N 33°44' W 118°17'0 0.0
2017-Aug-05 08:28N 33°44' W 118°17'0 0.0
2017-Aug-05 07:59N 33°44' W 118°17'0 0.0
2017-Aug-05 07:30N 33°44' W 118°17'0 0.0
2017-Aug-05 06:59N 33°44' W 118°17'0 0.0
2017-Aug-05 06:29N 33°44' W 118°17'0 0.0
2017-Aug-05 05:58N 33°44' W 118°17'0 0.0
2017-Aug-05 05:30N 33°44' W 118°17'0 0.0
2017-Aug-05 04:59N 33°44' W 118°17'0 0.0
2017-Aug-05 04:29N 33°44' W 118°17'0 0.0
2017-Aug-05 03:56N 33°44' W 118°17'0 0.0
2017-Aug-05 03:31N 33°44' W 118°17'0 0.0
2017-Aug-05 03:00N 33°44' W 118°17'0 0.0
2017-Aug-05 02:31N 33°44' W 118°17'0 0.0
2017-Aug-05 02:01N 33°44' W 118°17'0 0.0
2017-Aug-05 01:30N 33°44' W 118°17'0 0.0
2017-Aug-05 01:00N 33°44' W 118°17'0 0.0
2017-Aug-05 00:30N 33°44' W 118°17'0 0.0
2017-Aug-05 00:01N 33°44' W 118°17'0 0.0
2017-Aug-04 23:31N 33°44' W 118°17'0 0.0
2017-Aug-04 23:01N 33°44' W 118°17'0 0.0
2017-Aug-04 22:31N 33°44' W 118°17'0 0.0
2017-Aug-04 22:01N 33°44' W 118°17'0 0.0
2017-Aug-04 21:31N 33°44' W 118°17'0 0.0
2017-Aug-04 21:00N 33°44' W 118°17'0 0.0
2017-Aug-04 20:30N 33°44' W 118°17'0 0.1
2017-Aug-04 20:00N 33°44' W 118°17'0 0.1
2017-Aug-04 19:30N 33°44' W 118°17'0 0.0
2017-Aug-04 19:00N 33°44' W 118°17'0 0.0
2017-Aug-04 18:30N 33°44' W 118°17'0 0.0
2017-Aug-04 18:00N 33°44' W 118°17'1 2.1
2017-Aug-04 17:30N 33°43' W 118°16'2 4.0
2017-Aug-04 17:00N 33°41' W 118°16'3 5.4
2017-Aug-04 16:27N 33°39' W 118°18'10 5.6
2017-Aug-04 14:46N 33°31' W 118°25'6 0.5
2017-Aug-04 03:47N 33°27' W 118°30'0 0.0
2017-Aug-04 03:12N 33°27' W 118°30'  
Track history (hours):
 
Tides and Currents Weather Stations Pressure Air Temp Water Temp Dewpoint Dewpoint Depression Visibility Wind Speed Wind Dir Waves Ship Positions

Exy Johnson (United States)

Ship's website: http://www.lamitopsail.org/index.asp

Owner: Los Angeles Maritime Institute, San Pedro, CA. More information available from US FCC via Universal Licensing System and Coast Guard Vessel Documentation Center.

Last reported at 2017-Aug-13 01:36 UTC. Time now 2017-Aug-17 01:35 UTC.
Position N 33°44' W 118°17'.

Length 34 m; draft 3.7 m.

Type: Sailing vessel. MMSI: 366883970.

Date/timePositionNaut miles runAvg speedWind from/ knotsBaromVisibWave heightAir tempDewpointWater temp
2017-Aug-13 01:36N 33°44' W 118°17'0 0.0
2017-Aug-13 01:25N 33°44' W 118°17'0 0.0
2017-Aug-13 00:53N 33°44' W 118°17'0 0.0
2017-Aug-13 00:29N 33°44' W 118°17'0 0.0
2017-Aug-12 23:57N 33°44' W 118°17'0 0.0
2017-Aug-12 23:31N 33°44' W 118°17'0 0.5
2017-Aug-12 23:00N 33°44' W 118°16'2 3.8
2017-Aug-12 22:30N 33°43' W 118°14'1 1.6
2017-Aug-12 22:00N 33°43' W 118°14'1 2.0
2017-Aug-12 21:30N 33°44' W 118°12'1 2.5
2017-Aug-12 21:00N 33°43' W 118°14'1 2.2
2017-Aug-12 20:30N 33°43' W 118°15'1 1.6
2017-Aug-12 20:00N 33°43' W 118°16'1 1.4
2017-Aug-12 19:24N 33°44' W 118°16'0 0.6
2017-Aug-12 18:57N 33°44' W 118°17'0 0.0
2017-Aug-12 18:25N 33°44' W 118°17'0 0.0
2017-Aug-11 19:49N 33°44' W 118°17'0 0.2
2017-Aug-11 19:30N 33°44' W 118°17'0 0.1
2017-Aug-11 19:00N 33°44' W 118°17'0 0.0
2017-Aug-11 18:30N 33°44' W 118°17'0 0.0
2017-Aug-11 18:00N 33°44' W 118°17'0 0.0
2017-Aug-11 17:30N 33°44' W 118°17'2 3.6
2017-Aug-11 17:00N 33°43' W 118°15'4 7.0
2017-Aug-11 16:23N 33°40' W 118°20'3 7.8
2017-Aug-11 15:56N 33°38' W 118°23'2 5.5
2017-Aug-11 15:30N 33°37' W 118°25'3 5.4
2017-Aug-11 15:00N 33°35' W 118°27'7 7.0
2017-Aug-11 14:00N 33°28' W 118°29'1 0.1
2017-Aug-10 21:57N 33°27' W 118°30'0 0.0
2017-Aug-10 00:31N 33°27' W 118°30'0 5.6
2017-Aug-10 00:28N 33°27' W 118°30'1 0.9
2017-Aug-09 22:56N 33°28' W 118°31'0 0.1
2017-Aug-09 17:47N 33°28' W 118°31'2 6.7
2017-Aug-09 17:30N 33°27' W 118°29'3 6.2
2017-Aug-09 16:58N 33°26' W 118°25'3 6.0
2017-Aug-09 16:28N 33°25' W 118°22'1 1.6
2017-Aug-09 15:46N 33°24' W 118°22'0 0.0
2017-Aug-09 14:43N 33°24' W 118°22'0 0.0
2017-Aug-09 14:28N 33°24' W 118°22'0 0.0
2017-Aug-09 13:58N 33°24' W 118°22'0 0.0
2017-Aug-09 13:09N 33°24' W 118°22'0 0.0
2017-Aug-09 12:30N 33°24' W 118°22'0 0.0
2017-Aug-09 11:55N 33°24' W 118°22'0 0.0
2017-Aug-09 10:47N 33°24' W 118°22'0 0.0
2017-Aug-09 10:27N 33°24' W 118°22'0 0.1
2017-Aug-09 09:40N 33°24' W 118°22'0 0.0
2017-Aug-09 09:26N 33°24' W 118°22'0 0.0
2017-Aug-09 08:48N 33°24' W 118°22'0 0.2
2017-Aug-09 08:30N 33°24' W 118°22'0 0.0
2017-Aug-09 08:00N 33°24' W 118°22'0 0.0
2017-Aug-09 07:29N 33°24' W 118°22'0 0.0
2017-Aug-09 06:58N 33°24' W 118°22'0 0.1
2017-Aug-09 06:29N 33°24' W 118°22'0 0.0
2017-Aug-09 06:00N 33°24' W 118°22'0 0.1
2017-Aug-09 05:25N 33°24' W 118°22'0 0.0
2017-Aug-09 04:57N 33°24' W 118°22'0 0.0
2017-Aug-09 04:30N 33°24' W 118°22'0 0.0
2017-Aug-09 03:57N 33°24' W 118°22'0 0.0
2017-Aug-09 03:30N 33°24' W 118°22'0 0.0
2017-Aug-09 03:00N 33°24' W 118°22'0 0.0
2017-Aug-09 02:28N 33°24' W 118°22'0 0.0
2017-Aug-09 01:57N 33°24' W 118°22'0 0.0
2017-Aug-09 01:29N 33°24' W 118°22'0 0.0
2017-Aug-09 01:00N 33°24' W 118°22'0 0.0
2017-Aug-09 00:30N 33°24' W 118°22'0 0.1
2017-Aug-09 00:00N 33°24' W 118°22'1 1.8
2017-Aug-08 23:30N 33°25' W 118°22'2 3.3
2017-Aug-08 23:00N 33°26' W 118°23'3 6.0
2017-Aug-08 22:30N 33°29' W 118°23'3 6.8
2017-Aug-08 22:00N 33°32' W 118°22'3 6.1
2017-Aug-08 21:30N 33°35' W 118°23'2 4.6
2017-Aug-08 21:00N 33°38' W 118°23'1 2.5
2017-Aug-08 20:30N 33°39' W 118°23'1 1.8
2017-Aug-08 19:59N 33°40' W 118°24'2 3.1
2017-Aug-08 19:30N 33°41' W 118°23'2 3.2
2017-Aug-08 19:00N 33°43' W 118°23'1 1.2
2017-Aug-08 18:30N 33°43' W 118°22'2 4.1
2017-Aug-08 17:59N 33°42' W 118°19'2 4.3
2017-Aug-08 17:30N 33°41' W 118°17'3 5.9
2017-Aug-08 16:59N 33°43' W 118°14'3 5.7
2017-Aug-08 16:30N 33°44' W 118°11'1 2.3
2017-Aug-08 15:59N 33°45' W 118°10'1 1.2
2017-Aug-08 15:26N 33°45' W 118°10'0 0.0
2017-Aug-08 14:50N 33°45' W 118°10'0 0.0
2017-Aug-08 14:28N 33°45' W 118°10'0 0.1
2017-Aug-08 13:56N 33°45' W 118°10'0 0.0
2017-Aug-08 13:18N 33°45' W 118°10'0 0.0
2017-Aug-08 12:55N 33°45' W 118°10'0 0.0
2017-Aug-08 12:19N 33°45' W 118°10'0 0.0
2017-Aug-08 11:56N 33°45' W 118°10'0 0.0
2017-Aug-08 11:26N 33°45' W 118°10'0 0.0
2017-Aug-08 06:06N 33°45' W 118°10'0 0.0
2017-Aug-08 05:02N 33°45' W 118°10'0 0.0
2017-Aug-08 04:47N 33°45' W 118°10'0 0.0
2017-Aug-08 02:38N 33°45' W 118°10'0 0.0
2017-Aug-08 02:30N 33°45' W 118°10'0 0.0
2017-Aug-08 02:00N 33°45' W 118°10'1 2.8
2017-Aug-08 01:30N 33°45' W 118°11'1 1.9
2017-Aug-08 01:00N 33°45' W 118°11'2 4.7
2017-Aug-08 00:30N 33°42' W 118°11'3 5.3
2017-Aug-08 00:00N 33°40' W 118°12'3 5.2
2017-Aug-07 23:30N 33°38' W 118°14'1 1.7
2017-Aug-07 22:58N 33°37' W 118°15'3 5.6
2017-Aug-07 22:30N 33°40' W 118°15'3 5.1
2017-Aug-07 22:00N 33°43' W 118°15'1 1.9
2017-Aug-07 21:30N 33°43' W 118°16'1 1.5
2017-Aug-07 20:51N 33°44' W 118°17'0 0.0
2017-Aug-07 20:22N 33°44' W 118°17'0 0.0
2017-Aug-07 19:56N 33°44' W 118°17'0 0.0
2017-Aug-07 19:29N 33°44' W 118°17'0 0.0
2017-Aug-07 19:00N 33°44' W 118°17'0 0.0
2017-Aug-07 18:29N 33°44' W 118°17'0 0.0
2017-Aug-07 17:49N 33°44' W 118°17'0 0.0
2017-Aug-07 17:28N 33°44' W 118°17'0 0.0
2017-Aug-07 16:59N 33°44' W 118°17'0 0.0
2017-Aug-07 16:19N 33°44' W 118°17'0 0.0
2017-Aug-07 15:53N 33°44' W 118°17'0 0.0
2017-Aug-07 15:28N 33°44' W 118°17'0 0.0
2017-Aug-07 14:56N 33°44' W 118°17'0 0.0
2017-Aug-07 12:59N 33°44' W 118°17'0 0.0
2017-Aug-07 12:28N 33°44' W 118°17'0 0.0
2017-Aug-07 10:25N 33°44' W 118°17'0 0.0
2017-Aug-07 09:46N 33°44' W 118°17'0 0.0
2017-Aug-07 09:27N 33°44' W 118°17'0 0.0
2017-Aug-07 09:00N 33°44' W 118°17'0 0.0
2017-Aug-07 08:29N 33°44' W 118°17'0 0.0
2017-Aug-07 07:43N 33°44' W 118°17'0 0.0
2017-Aug-07 07:11N 33°44' W 118°17'0 0.0
2017-Aug-07 06:43N 33°44' W 118°17'0 0.0
2017-Aug-07 06:29N 33°44' W 118°17'0 0.0
2017-Aug-07 04:47N 33°44' W 118°17'0 0.0
2017-Aug-07 04:27N 33°44' W 118°17'0 0.0
2017-Aug-07 03:55N 33°44' W 118°17'0 0.0
2017-Aug-07 03:29N 33°44' W 118°17'0 0.0
2017-Aug-07 03:00N 33°44' W 118°17'0 0.0
2017-Aug-07 02:30N 33°44' W 118°17'0 0.0
2017-Aug-07 01:58N 33°44' W 118°17'0 0.0
2017-Aug-07 01:27N 33°44' W 118°17'0 0.0
2017-Aug-07 01:00N 33°44' W 118°17'0 0.0
2017-Aug-07 00:29N 33°44' W 118°17'0 0.0
2017-Aug-06 23:56N 33°44' W 118°17'0 0.0
2017-Aug-06 23:19N 33°44' W 118°17'0 0.0
2017-Aug-06 22:50N 33°44' W 118°17'0 0.0
2017-Aug-06 22:28N 33°44' W 118°17'0 0.0
2017-Aug-06 21:59N 33°44' W 118°17'0 0.0
2017-Aug-06 21:29N 33°44' W 118°17'0 0.0
2017-Aug-06 21:00N 33°44' W 118°17'0 0.0
2017-Aug-06 20:29N 33°44' W 118°17'0 0.0
2017-Aug-06 19:58N 33°44' W 118°17'0 0.0
2017-Aug-06 19:25N 33°44' W 118°17'0 0.0
2017-Aug-06 18:56N 33°44' W 118°17'0 0.0
2017-Aug-06 18:27N 33°44' W 118°17'0 0.0
2017-Aug-06 17:53N 33°44' W 118°17'0 0.0
2017-Aug-06 17:26N 33°44' W 118°17'0 0.0
2017-Aug-06 17:00N 33°44' W 118°17'0 0.0
2017-Aug-06 16:30N 33°44' W 118°17'0 0.0
2017-Aug-06 15:56N 33°44' W 118°17'0 0.0
2017-Aug-06 15:25N 33°44' W 118°17'0 0.0
2017-Aug-06 14:59N 33°44' W 118°17'0 0.0
2017-Aug-06 14:29N 33°44' W 118°17'0 0.0
2017-Aug-06 13:26N 33°44' W 118°17'0 0.0
2017-Aug-06 12:59N 33°44' W 118°17'0 0.0
2017-Aug-06 12:22N 33°44' W 118°17'0 0.0
2017-Aug-06 11:57N 33°44' W 118°17'0 0.0
2017-Aug-06 11:28N 33°44' W 118°17'0 0.0
2017-Aug-06 10:58N 33°44' W 118°17'0 0.0
2017-Aug-06 10:25N 33°44' W 118°17'0 0.0
2017-Aug-06 09:58N 33°44' W 118°17'0 0.0
2017-Aug-06 09:30N 33°44' W 118°17'0 0.0
2017-Aug-06 08:58N 33°44' W 118°17'0 0.0
2017-Aug-06 08:27N 33°44' W 118°17'0 0.0
2017-Aug-06 07:54N 33°44' W 118°17'0 0.0
2017-Aug-06 07:29N 33°44' W 118°17'0 0.0
2017-Aug-06 06:57N 33°44' W 118°17'0 0.0
2017-Aug-06 06:27N 33°44' W 118°17'0 0.0
2017-Aug-06 05:58N 33°44' W 118°17'0 0.0
2017-Aug-06 05:27N 33°44' W 118°17'0 0.0
2017-Aug-06 04:59N 33°44' W 118°17'0 0.0
2017-Aug-06 04:22N 33°44' W 118°17'0 0.0
2017-Aug-06 03:57N 33°44' W 118°17'0 0.0
2017-Aug-06 03:29N 33°44' W 118°17'0 0.0
2017-Aug-06 02:57N 33°44' W 118°17'0 0.0
2017-Aug-06 02:26N 33°44' W 118°17'0 0.0
2017-Aug-06 01:59N 33°44' W 118°17'0 0.0
2017-Aug-06 01:28N 33°44' W 118°17'0 0.0
2017-Aug-06 00:58N 33°44' W 118°17'0 0.0
2017-Aug-06 00:25N 33°44' W 118°17'0 0.0
2017-Aug-05 23:59N 33°44' W 118°17'0 0.0
2017-Aug-05 23:30N 33°44' W 118°17'0 0.0
2017-Aug-05 23:00N 33°44' W 118°17'0 0.0
2017-Aug-05 22:30N 33°44' W 118°17'0 0.0
2017-Aug-05 22:00N 33°44' W 118°17'0 0.9
2017-Aug-05 21:30N 33°44' W 118°17'1 2.5
2017-Aug-05 20:59N 33°43' W 118°16'1 2.6
2017-Aug-05 20:29N 33°42' W 118°15'1 3.0
2017-Aug-05 20:00N 33°41' W 118°15'1 1.5
2017-Aug-05 19:30N 33°41' W 118°15'1 2.8
2017-Aug-05 18:59N 33°43' W 118°15'1 2.8
2017-Aug-05 18:30N 33°44' W 118°16'0 0.5
2017-Aug-05 17:56N 33°44' W 118°17'0 0.0
2017-Aug-05 16:29N 33°44' W 118°17'0 0.0
2017-Aug-05 12:43N 33°44' W 118°17'0 0.0
2017-Aug-05 12:30N 33°44' W 118°17'0 0.0
2017-Aug-05 11:55N 33°44' W 118°17'0 0.0
2017-Aug-05 11:23N 33°44' W 118°17'0 0.0
2017-Aug-05 10:58N 33°44' W 118°17'0 0.0
2017-Aug-05 10:30N 33°44' W 118°17'0 0.0
2017-Aug-05 09:53N 33°44' W 118°17'0 0.0
2017-Aug-05 09:28N 33°44' W 118°17'0 0.0
2017-Aug-05 08:59N 33°44' W 118°17'0 0.0
2017-Aug-05 08:28N 33°44' W 118°17'0 0.0
2017-Aug-05 07:59N 33°44' W 118°17'0 0.0
2017-Aug-05 07:30N 33°44' W 118°17'0 0.0
2017-Aug-05 06:59N 33°44' W 118°17'0 0.0
2017-Aug-05 06:29N 33°44' W 118°17'0 0.0
2017-Aug-05 05:58N 33°44' W 118°17'0 0.0
2017-Aug-05 05:30N 33°44' W 118°17'0 0.0
2017-Aug-05 04:59N 33°44' W 118°17'0 0.0
2017-Aug-05 04:29N 33°44' W 118°17'0 0.0
2017-Aug-05 03:56N 33°44' W 118°17'0 0.0
2017-Aug-05 03:31N 33°44' W 118°17'0 0.0
2017-Aug-05 03:00N 33°44' W 118°17'0 0.0
2017-Aug-05 02:31N 33°44' W 118°17'0 0.0
2017-Aug-05 02:01N 33°44' W 118°17'0 0.0
2017-Aug-05 01:30N 33°44' W 118°17'0 0.0
2017-Aug-05 01:00N 33°44' W 118°17'0 0.0
2017-Aug-05 00:30N 33°44' W 118°17'0 0.0
2017-Aug-05 00:01N 33°44' W 118°17'0 0.0
2017-Aug-04 23:31N 33°44' W 118°17'0 0.0
2017-Aug-04 23:01N 33°44' W 118°17'0 0.0
2017-Aug-04 22:31N 33°44' W 118°17'0 0.0
2017-Aug-04 22:01N 33°44' W 118°17'0 0.0
2017-Aug-04 21:31N 33°44' W 118°17'0 0.0
2017-Aug-04 21:00N 33°44' W 118°17'0 0.0
2017-Aug-04 20:30N 33°44' W 118°17'0 0.1
2017-Aug-04 20:00N 33°44' W 118°17'0 0.1
2017-Aug-04 19:30N 33°44' W 118°17'0 0.0
2017-Aug-04 19:00N 33°44' W 118°17'0 0.0
2017-Aug-04 18:30N 33°44' W 118°17'0 0.0
2017-Aug-04 18:00N 33°44' W 118°17'1 2.1
2017-Aug-04 17:30N 33°43' W 118°16'2 4.0
2017-Aug-04 17:00N 33°41' W 118°16'3 5.4
2017-Aug-04 16:27N 33°39' W 118°18'10 5.6
2017-Aug-04 14:46N 33°31' W 118°25'6 0.5
2017-Aug-04 03:47N 33°27' W 118°30'0 0.0
2017-Aug-04 03:12N 33°27' W 118°30'  

Dump ship's entire track history